createdAt,value
2023-02-11T00:01:11.568Z,94.83
2023-02-11T00:03:38.920Z,94.62
2023-02-11T00:06:09.480Z,94.62
2023-02-11T00:08:36.609Z,95.00
2023-02-11T00:11:04.133Z,94.84
2023-02-11T00:13:31.026Z,94.84
2023-02-11T00:15:57.905Z,95.05
2023-02-11T00:18:24.937Z,94.96
2023-02-11T00:20:51.859Z,94.81
2023-02-11T00:23:18.611Z,95.42
2023-02-11T00:25:45.744Z,95.65
2023-02-11T00:28:13.199Z,96.58
2023-02-11T00:30:40.916Z,96.27
2023-02-11T00:33:07.933Z,96.90
2023-02-11T00:35:38.524Z,96.72
2023-02-11T00:38:05.551Z,97.25
2023-02-11T00:40:32.404Z,97.88
2023-02-11T00:42:59.368Z,98.95
2023-02-11T00:45:26.258Z,98.46
2023-02-11T00:47:53.183Z,98.66
2023-02-11T00:50:20.009Z,98.37
2023-02-11T00:52:46.856Z,98.09
2023-02-11T00:55:13.735Z,97.95
2023-02-11T00:57:40.541Z,97.72
2023-02-11T01:00:08.500Z,97.55
2023-02-11T01:02:35.967Z,98.17
2023-02-11T01:05:03.377Z,97.98
2023-02-11T01:07:30.297Z,97.71
2023-02-11T01:09:57.740Z,97.74
2023-02-11T01:12:24.727Z,97.56
2023-02-11T01:14:51.558Z,97.38
2023-02-11T01:17:18.467Z,97.30
2023-02-11T01:19:45.546Z,97.14
2023-02-11T01:22:12.412Z,97.07
2023-02-11T01:24:39.248Z,96.94
2023-02-11T01:27:06.153Z,96.86
2023-02-11T01:29:33.091Z,97.21
2023-02-11T01:32:01.044Z,97.18
2023-02-11T01:34:28.327Z,97.38
2023-02-11T01:36:59.383Z,97.33
2023-02-11T01:39:27.323Z,97.58
2023-02-11T01:41:55.087Z,97.77
2023-02-11T01:44:31.846Z,97.70
2023-02-11T01:46:59.472Z,97.50
2023-02-11T01:49:33.160Z,97.45
2023-02-11T01:52:20.042Z,97.65
2023-02-11T01:55:09.320Z,97.37
2023-02-11T01:57:38.945Z,97.24
2023-02-11T02:00:16.289Z,97.35
2023-02-11T02:02:44.664Z,97.48
2023-02-11T02:05:30.204Z,97.38
2023-02-11T02:08:09.207Z,97.25
2023-02-11T02:10:38.124Z,97.15
2023-02-11T02:13:05.050Z,96.99
2023-02-11T02:15:36.879Z,96.75
2023-02-11T02:18:25.460Z,96.72
2023-02-11T02:21:24.458Z,96.55
2023-02-11T02:24:09.251Z,96.47
2023-02-11T02:27:00.775Z,96.46
2023-02-11T02:29:58.728Z,96.61
2023-02-11T02:32:54.885Z,96.77
2023-02-11T02:35:27.882Z,96.82
2023-02-11T02:38:20.762Z,96.53
2023-02-11T02:40:55.151Z,96.58
2023-02-11T02:43:23.026Z,96.32
2023-02-11T02:45:50.288Z,96.42
2023-02-11T02:48:29.764Z,96.35
2023-02-11T02:51:18.190Z,96.81
2023-02-11T02:54:20.343Z,97.24
2023-02-11T02:57:02.355Z,97.91
2023-02-11T02:59:37.558Z,97.36
2023-02-11T03:02:29.850Z,97.63
2023-02-11T03:05:04.674Z,97.56
2023-02-11T03:07:41.973Z,97.53
2023-02-11T03:10:38.073Z,97.80
2023-02-11T03:13:06.080Z,97.69
2023-02-11T03:15:35.153Z,97.56
2023-02-11T03:18:03.392Z,97.21
2023-02-11T03:20:33.207Z,97.09
2023-02-11T03:23:11.901Z,97.10
2023-02-11T03:25:44.560Z,97.27
2023-02-11T03:28:18.378Z,97.09
2023-02-11T03:30:59.761Z,97.28
2023-02-11T03:33:36.182Z,97.19
2023-02-11T03:36:07.450Z,97.08
2023-02-11T03:38:38.620Z,96.94
2023-02-11T03:41:07.181Z,97.05
2023-02-11T03:43:37.295Z,96.99
2023-02-11T03:46:04.960Z,97.37
2023-02-11T03:48:34.707Z,97.59
2023-02-11T03:51:03.400Z,97.59
2023-02-11T03:53:30.262Z,97.47
2023-02-11T03:56:00.339Z,97.50
2023-02-11T03:58:27.397Z,97.38
2023-02-11T04:00:54.366Z,97.65
2023-02-11T04:03:21.455Z,97.91
2023-02-11T04:05:48.950Z,98.18
2023-02-11T04:08:16.127Z,98.46
2023-02-11T04:10:43.039Z,98.39
2023-02-11T04:13:10.013Z,98.03
2023-02-11T04:15:37.012Z,98.44
2023-02-11T04:18:04.257Z,98.90
2023-02-11T04:20:31.250Z,98.59
2023-02-11T04:22:58.078Z,98.63
2023-02-11T04:25:26.272Z,98.47
2023-02-11T04:27:53.575Z,98.51
2023-02-11T04:30:20.652Z,98.34
2023-02-11T04:32:47.445Z,98.09
2023-02-11T04:35:14.354Z,97.95
2023-02-11T04:37:41.235Z,97.75
2023-02-11T04:40:08.628Z,97.99
2023-02-11T04:42:35.465Z,98.09
2023-02-11T04:45:02.347Z,98.08
2023-02-11T04:47:29.896Z,97.95
2023-02-11T04:49:56.817Z,97.83
2023-02-11T04:52:23.591Z,97.62
2023-02-11T04:54:50.469Z,97.32
2023-02-11T04:57:17.330Z,97.17
2023-02-11T04:59:44.315Z,96.94
2023-02-11T05:02:11.139Z,96.92
2023-02-11T05:04:38.092Z,96.68
2023-02-11T05:07:05.037Z,96.60
2023-02-11T05:09:31.980Z,96.62
2023-02-11T05:11:58.791Z,96.52
2023-02-11T05:14:25.726Z,96.47
2023-02-11T05:16:52.565Z,96.67
2023-02-11T05:19:19.575Z,96.58
2023-02-11T05:22:01.327Z,96.76
2023-02-11T05:24:29.217Z,96.71
2023-02-11T05:26:56.090Z,96.73
2023-02-11T05:29:23.124Z,96.73
2023-02-11T05:31:50.016Z,96.70
2023-02-11T05:34:16.793Z,96.67
2023-02-11T05:36:43.783Z,96.62
2023-02-11T05:39:10.658Z,96.55
2023-02-11T05:41:38.318Z,96.36
2023-02-11T05:44:05.210Z,96.28
2023-02-11T05:46:32.170Z,96.28
2023-02-11T05:48:59.229Z,96.34
2023-02-11T05:51:26.069Z,96.25
2023-02-11T05:53:53.342Z,96.20
2023-02-11T05:56:20.160Z,96.02
2023-02-11T05:58:47.011Z,96.04
2023-02-11T06:01:13.941Z,96.04
2023-02-11T06:03:40.872Z,96.00
2023-02-11T06:06:13.936Z,95.85
2023-02-11T06:08:43.068Z,95.77
2023-02-11T06:11:10.098Z,95.92
2023-02-11T06:13:37.138Z,95.97
2023-02-11T06:16:05.006Z,96.04
2023-02-11T06:18:33.696Z,96.33
2023-02-11T06:21:01.603Z,96.50
2023-02-11T06:23:30.429Z,96.47
2023-02-11T06:26:02.506Z,96.29
2023-02-11T06:28:32.275Z,95.92
2023-02-11T06:31:24.683Z,95.03
2023-02-11T06:33:59.182Z,93.37
2023-02-11T06:36:26.523Z,91.43
2023-02-11T06:38:53.349Z,89.76
2023-02-11T06:41:20.371Z,88.94
2023-02-11T06:43:47.307Z,87.59
2023-02-11T06:46:14.784Z,86.20
2023-02-11T06:48:44.681Z,85.44
2023-02-11T06:51:13.607Z,85.81
2023-02-11T06:53:44.024Z,85.61
2023-02-11T06:56:13.202Z,85.53
2023-02-11T07:01:15.159Z,85.75
2023-02-11T07:03:44.764Z,85.75
2023-02-11T07:06:14.711Z,88.19
2023-02-11T07:08:43.034Z,88.61
2023-02-11T07:11:19.021Z,86.49
2023-02-11T07:13:47.277Z,86.49
2023-02-11T07:16:16.430Z,86.50
2023-02-11T07:18:44.971Z,87.59
2023-02-11T07:21:13.619Z,87.37
2023-02-11T07:23:41.326Z,87.06
2023-02-11T07:26:13.225Z,87.81
2023-02-11T07:28:41.207Z,89.02
2023-02-11T07:31:09.219Z,90.03
2023-02-11T07:33:37.002Z,90.80
2023-02-11T07:36:05.896Z,91.61
2023-02-11T07:38:33.743Z,92.29
2023-02-11T07:41:05.309Z,93.14
2023-02-11T07:43:32.614Z,93.34
2023-02-11T07:45:59.535Z,93.52
2023-02-11T07:48:26.408Z,93.82
2023-02-11T07:51:05.765Z,94.07
2023-02-11T07:53:32.716Z,95.57
2023-02-11T07:55:59.594Z,95.56
2023-02-11T07:58:26.554Z,95.37
2023-02-11T08:00:53.753Z,95.64
2023-02-11T08:03:20.781Z,95.04
2023-02-11T08:05:47.679Z,94.86
2023-02-11T08:08:14.919Z,94.91
2023-02-11T08:10:41.880Z,94.48
2023-02-11T08:13:08.840Z,94.96
2023-02-11T08:15:35.849Z,94.66
2023-02-11T08:18:02.783Z,95.41
2023-02-11T08:20:29.781Z,94.72
2023-02-11T08:22:56.705Z,95.04
2023-02-11T08:25:23.493Z,94.89
2023-02-11T08:27:50.524Z,94.71
2023-02-11T08:30:17.460Z,95.09
2023-02-11T08:32:44.348Z,94.83
2023-02-11T08:35:12.512Z,94.79
2023-02-11T08:37:39.406Z,94.59
2023-02-11T08:40:06.801Z,94.39
2023-02-11T08:42:33.879Z,94.05
2023-02-11T08:45:00.922Z,93.79
2023-02-11T08:47:27.914Z,93.49
2023-02-11T08:49:54.841Z,93.01
2023-02-11T08:52:21.720Z,92.71
2023-02-11T08:54:48.563Z,92.08
2023-02-11T08:57:15.515Z,90.96
2023-02-11T08:59:42.498Z,90.77
2023-02-11T09:02:14.275Z,90.26
2023-02-11T09:04:42.826Z,89.09
2023-02-11T09:07:09.903Z,89.54
2023-02-11T09:09:37.097Z,89.60
2023-02-11T09:12:04.679Z,88.49
2023-02-11T09:14:31.584Z,87.83
2023-02-11T09:16:58.620Z,87.30
2023-02-11T09:19:25.723Z,87.20
2023-02-11T09:21:52.726Z,86.11
2023-02-11T09:24:19.774Z,86.12
2023-02-11T09:26:46.849Z,85.91
2023-02-11T09:29:13.900Z,85.02
2023-02-11T09:31:41.098Z,83.76
2023-02-11T09:34:08.413Z,83.31
2023-02-11T09:36:39.000Z,82.13
2023-02-11T09:39:09.270Z,79.71
2023-02-11T09:41:42.948Z,78.75
2023-02-11T09:44:22.007Z,79.02
2023-02-11T09:47:03.096Z,78.15
2023-02-11T09:49:40.493Z,78.54
2023-02-11T09:52:31.082Z,78.88
2023-02-11T09:55:00.829Z,78.54
2023-02-11T09:57:33.769Z,79.38
2023-02-11T10:00:02.261Z,79.11
2023-02-11T10:02:57.239Z,79.62
2023-02-11T10:05:44.688Z,80.21
2023-02-11T10:08:27.603Z,80.27
2023-02-11T10:11:09.251Z,79.44
2023-02-11T10:14:00.648Z,78.23
2023-02-11T10:16:56.730Z,75.76
2023-02-11T10:19:42.374Z,74.77
2023-02-11T10:22:21.564Z,75.12
2023-02-11T10:24:55.298Z,75.54
2023-02-11T10:27:28.631Z,75.11
2023-02-11T10:30:02.780Z,75.43
2023-02-11T10:32:52.619Z,74.62
2023-02-11T10:35:22.568Z,73.58
2023-02-11T10:37:50.265Z,72.72
2023-02-11T10:40:19.912Z,73.40
2023-02-11T10:42:50.320Z,73.30
2023-02-11T10:45:33.698Z,73.16
2023-02-11T10:48:02.020Z,72.39
2023-02-11T10:50:33.511Z,72.28
2023-02-11T10:53:22.343Z,70.66
2023-02-11T10:55:51.730Z,69.25
2023-02-11T10:58:28.265Z,69.98
2023-02-11T11:00:57.046Z,68.77
2023-02-11T11:03:25.552Z,67.78
2023-02-11T11:05:58.724Z,67.45
2023-02-11T11:08:47.068Z,65.83
2023-02-11T11:11:18.671Z,63.86
2023-02-11T11:13:54.410Z,64.50
2023-02-11T11:16:24.507Z,64.68
2023-02-11T11:19:13.712Z,62.55
2023-02-11T11:21:52.219Z,61.44
2023-02-11T11:24:26.866Z,60.76
2023-02-11T11:27:01.085Z,61.28
2023-02-11T11:29:30.871Z,61.62
2023-02-11T11:32:05.161Z,61.56
2023-02-11T11:34:38.389Z,60.46
2023-02-11T11:37:33.557Z,59.60
2023-02-11T11:40:02.902Z,58.95
2023-02-11T11:42:29.880Z,58.73
2023-02-11T11:45:02.046Z,59.58
2023-02-11T11:47:41.078Z,58.93
2023-02-11T11:50:21.200Z,57.72
2023-02-11T11:52:58.806Z,58.32
2023-02-11T11:55:47.566Z,58.56
2023-02-11T11:58:18.285Z,56.97
2023-02-11T12:00:54.136Z,56.74
2023-02-11T12:03:32.821Z,57.71
2023-02-11T12:06:31.848Z,57.78
2023-02-11T12:09:24.344Z,58.05
2023-02-11T12:12:24.294Z,57.28
2023-02-11T12:15:11.366Z,57.52
2023-02-11T12:18:13.150Z,56.89
2023-02-11T12:20:55.030Z,56.30
2023-02-11T12:23:39.349Z,56.95
2023-02-11T12:26:19.822Z,56.17
2023-02-11T12:29:22.270Z,54.62
2023-02-11T12:32:22.519Z,55.22
2023-02-11T12:34:55.594Z,53.94
2023-02-11T12:37:26.775Z,53.78
2023-02-11T12:40:19.022Z,53.46
2023-02-11T12:43:17.899Z,53.79
2023-02-11T12:45:53.936Z,53.52
2023-02-11T12:48:25.421Z,54.02
2023-02-11T12:50:52.942Z,53.75
2023-02-11T12:53:41.578Z,53.31
2023-02-11T12:56:21.719Z,53.63
2023-02-11T12:58:50.777Z,53.30
2023-02-11T13:01:27.520Z,53.04
2023-02-11T13:04:13.250Z,51.77
2023-02-11T13:06:49.448Z,51.93
2023-02-11T13:09:22.707Z,51.58
2023-02-11T13:11:52.162Z,50.89
2023-02-11T13:14:19.379Z,51.23
2023-02-11T13:16:47.910Z,51.94
2023-02-11T13:19:21.809Z,51.33
2023-02-11T13:22:15.070Z,50.51
2023-02-11T13:24:49.431Z,50.00
2023-02-11T13:27:33.207Z,49.85
2023-02-11T13:30:34.586Z,49.57
2023-02-11T13:33:01.596Z,49.40
2023-02-11T13:35:46.736Z,48.83
2023-02-11T13:38:16.407Z,47.78
2023-02-11T13:40:44.245Z,47.54
2023-02-11T13:43:31.129Z,46.60
2023-02-11T13:46:03.907Z,45.64
2023-02-11T13:48:32.012Z,46.05
2023-02-11T13:51:08.728Z,45.86
2023-02-11T13:53:49.084Z,46.54
2023-02-11T13:56:35.453Z,45.96
2023-02-11T13:59:05.527Z,45.93
2023-02-11T14:02:10.464Z,46.01
2023-02-11T14:05:19.997Z,45.96
2023-02-11T14:08:30.498Z,45.63
2023-02-11T14:11:08.614Z,46.57
2023-02-11T14:13:47.850Z,45.54
2023-02-11T14:16:36.399Z,46.21
2023-02-11T14:19:06.224Z,46.13
2023-02-11T14:21:40.354Z,45.84
2023-02-11T14:24:10.908Z,46.86
2023-02-11T14:26:55.306Z,47.02
2023-02-11T14:29:40.168Z,46.37
2023-02-11T14:32:55.827Z,47.24
2023-02-11T14:35:47.321Z,47.58
2023-02-11T14:38:39.160Z,47.92
2023-02-11T14:41:07.647Z,48.27
2023-02-11T14:43:58.634Z,48.45
2023-02-11T14:46:27.815Z,47.60
2023-02-11T14:48:58.448Z,48.37
2023-02-11T14:51:29.504Z,48.33
2023-02-11T14:54:00.676Z,49.02
2023-02-11T14:56:31.108Z,49.04
2023-02-11T14:58:58.749Z,48.40
2023-02-11T15:01:38.395Z,48.86
2023-02-11T15:04:07.016Z,48.93
2023-02-11T15:06:40.196Z,48.75
2023-02-11T15:09:19.349Z,48.94
2023-02-11T15:11:48.031Z,49.49
2023-02-11T15:14:32.566Z,50.06
2023-02-11T15:17:05.158Z,50.23
2023-02-11T15:19:35.967Z,50.28
2023-02-11T15:22:22.257Z,50.78
2023-02-11T15:25:14.982Z,50.75
2023-02-11T15:27:53.327Z,51.74
2023-02-11T15:30:24.913Z,51.79
2023-02-11T15:32:59.953Z,51.92
2023-02-11T15:35:36.739Z,52.44
2023-02-11T15:38:05.557Z,52.50
2023-02-11T15:40:36.200Z,53.05
2023-02-11T15:43:08.735Z,53.11
2023-02-11T15:45:38.848Z,53.19
2023-02-11T15:48:11.691Z,53.29
2023-02-11T15:50:40.896Z,53.59
2023-02-11T15:53:27.145Z,54.00
2023-02-11T15:56:16.321Z,54.52
2023-02-11T15:58:45.599Z,54.90
2023-02-11T16:01:14.138Z,55.35
2023-02-11T16:03:42.794Z,55.82
2023-02-11T16:06:25.240Z,55.92
2023-02-11T16:09:06.282Z,56.34
2023-02-11T16:11:36.152Z,56.45
2023-02-11T16:14:21.558Z,57.06
2023-02-11T16:16:51.580Z,57.36
2023-02-11T16:19:20.843Z,57.60
2023-02-11T16:21:49.382Z,57.68
2023-02-11T16:24:28.013Z,58.19
2023-02-11T16:26:57.826Z,58.08
2023-02-11T16:29:27.401Z,58.61
2023-02-11T16:32:07.332Z,58.54
2023-02-11T16:34:36.111Z,58.95
2023-02-11T16:37:05.090Z,59.06
2023-02-11T16:39:32.436Z,59.33
2023-02-11T16:42:00.411Z,59.42
2023-02-11T16:44:28.080Z,59.36
2023-02-11T16:46:56.123Z,60.01
2023-02-11T16:49:26.757Z,60.08
2023-02-11T16:51:57.067Z,59.65
2023-02-11T16:54:24.362Z,59.85
2023-02-11T16:56:51.504Z,59.37
2023-02-11T16:59:18.738Z,59.20
2023-02-11T17:01:46.598Z,59.14
2023-02-11T17:04:28.702Z,59.37
2023-02-11T17:06:58.220Z,59.24
2023-02-11T17:09:30.315Z,59.42
2023-02-11T17:11:58.079Z,59.26
2023-02-11T17:14:25.414Z,59.85
2023-02-11T17:16:52.672Z,60.27
2023-02-11T17:19:21.436Z,59.76
2023-02-11T17:21:51.449Z,59.76
2023-02-11T17:24:20.316Z,59.94
2023-02-11T17:26:48.280Z,60.12
2023-02-11T17:29:19.284Z,59.80
2023-02-11T17:31:46.725Z,59.39
2023-02-11T17:34:15.104Z,59.43
2023-02-11T17:36:42.234Z,59.50
2023-02-11T17:39:10.533Z,59.57
2023-02-11T17:41:38.911Z,60.26
2023-02-11T17:44:07.564Z,60.53
2023-02-11T17:46:35.158Z,60.02
2023-02-11T17:49:02.882Z,60.54
2023-02-11T17:51:33.044Z,60.33
2023-02-11T17:54:02.914Z,60.30
2023-02-11T17:56:32.077Z,60.14
2023-02-11T17:58:59.687Z,60.20
2023-02-11T18:01:30.435Z,60.35
2023-02-11T18:03:59.674Z,60.28
2023-02-11T18:06:29.127Z,60.35
2023-02-11T18:08:59.618Z,60.60
2023-02-11T18:11:27.837Z,60.59
2023-02-11T18:13:55.136Z,60.57
2023-02-11T18:16:24.214Z,60.61
2023-02-11T18:18:51.354Z,60.56
2023-02-11T18:21:20.563Z,60.89
2023-02-11T18:23:48.482Z,61.59
2023-02-11T18:26:17.038Z,61.84
2023-02-11T18:28:46.009Z,62.04
2023-02-11T18:31:14.918Z,61.56
2023-02-11T18:33:42.507Z,61.99
2023-02-11T18:36:11.598Z,61.65
2023-02-11T18:38:39.670Z,61.84
2023-02-11T18:41:10.300Z,61.97
2023-02-11T18:43:37.557Z,62.39
2023-02-11T18:46:11.581Z,61.46
2023-02-11T18:48:39.739Z,61.53
2023-02-11T18:51:11.481Z,61.48
2023-02-11T18:53:38.700Z,61.64
2023-02-11T18:56:14.734Z,61.30
2023-02-11T18:58:41.865Z,61.59
2023-02-11T19:01:20.922Z,62.24
2023-02-11T19:03:48.845Z,62.99
2023-02-11T19:06:17.822Z,62.96
2023-02-11T19:08:45.974Z,62.80
2023-02-11T19:11:16.089Z,62.83
2023-02-11T19:13:43.477Z,62.76
2023-02-11T19:16:11.660Z,63.06
2023-02-11T19:18:38.891Z,62.98
2023-02-11T19:21:10.830Z,62.87
2023-02-11T19:23:38.516Z,62.79
2023-02-11T19:26:06.555Z,62.26
2023-02-11T19:28:35.352Z,62.54
2023-02-11T19:31:09.567Z,62.79
2023-02-11T19:33:37.082Z,62.63
2023-02-11T19:36:06.009Z,63.06
2023-02-11T19:38:33.604Z,62.89
2023-02-11T19:41:00.636Z,63.12
2023-02-11T19:43:28.211Z,63.21
2023-02-11T19:45:56.361Z,63.44
2023-02-11T19:48:25.009Z,63.26
2023-02-11T19:50:54.602Z,63.64
2023-02-11T19:53:21.822Z,63.44
2023-02-11T19:55:49.901Z,63.59
2023-02-11T19:58:17.573Z,63.92
2023-02-11T20:00:44.780Z,63.72
2023-02-11T20:03:12.179Z,63.67
2023-02-11T20:05:40.312Z,64.01
2023-02-11T20:08:07.937Z,63.75
2023-02-11T20:10:35.087Z,64.41
2023-02-11T20:13:03.930Z,65.09
2023-02-11T20:15:31.851Z,65.60
2023-02-11T20:17:59.177Z,65.71
2023-02-11T20:20:26.217Z,66.03
2023-02-11T20:22:53.165Z,66.61
2023-02-11T20:25:20.257Z,66.90
2023-02-11T20:27:47.579Z,67.18
2023-02-11T20:30:16.287Z,67.79
2023-02-11T20:32:43.322Z,67.94
2023-02-11T20:35:10.472Z,68.70
2023-02-11T20:37:38.791Z,68.74
2023-02-11T20:40:07.059Z,69.46
2023-02-11T20:42:34.226Z,69.63
2023-02-11T20:45:01.268Z,70.60
2023-02-11T20:47:28.532Z,70.70
2023-02-11T20:49:55.934Z,71.71
2023-02-11T20:52:22.976Z,71.62
2023-02-11T20:54:50.045Z,71.96
2023-02-11T20:57:17.605Z,72.71
2023-02-11T20:59:44.630Z,72.56
2023-02-11T21:02:13.255Z,72.78
2023-02-11T21:04:40.579Z,72.53
2023-02-11T21:07:07.684Z,73.09
2023-02-11T21:09:35.935Z,72.88
2023-02-11T21:12:03.379Z,73.84
2023-02-11T21:14:30.504Z,73.50
2023-02-11T21:16:57.728Z,73.95
2023-02-11T21:19:24.970Z,74.77
2023-02-11T21:21:52.075Z,75.16
2023-02-11T21:24:19.435Z,75.97
2023-02-11T21:26:46.662Z,76.66
2023-02-11T21:29:13.606Z,76.68
2023-02-11T21:31:40.626Z,77.45
2023-02-11T21:34:08.146Z,77.72
2023-02-11T21:36:35.454Z,78.59
2023-02-11T21:39:03.937Z,78.98
2023-02-11T21:41:31.438Z,79.38
2023-02-11T21:43:58.598Z,79.25
2023-02-11T21:46:26.380Z,79.33
2023-02-11T21:48:53.551Z,79.66
2023-02-11T21:51:23.336Z,79.60
2023-02-11T21:53:57.616Z,80.00
2023-02-11T21:56:27.994Z,80.53
2023-02-11T21:58:57.620Z,80.74
2023-02-11T22:01:30.241Z,80.95
2023-02-11T22:03:57.611Z,81.56
2023-02-11T22:06:32.956Z,81.57
2023-02-11T22:09:04.749Z,81.77
2023-02-11T22:11:31.942Z,82.32
2023-02-11T22:13:59.243Z,82.98
2023-02-11T22:16:27.181Z,83.21
2023-02-11T22:18:56.024Z,83.34
2023-02-11T22:21:23.399Z,83.45
2023-02-11T22:23:51.124Z,84.03
2023-02-11T22:26:21.134Z,84.25
2023-02-11T22:28:49.268Z,84.53
2023-02-11T22:31:21.429Z,84.70
2023-02-11T22:33:48.835Z,84.81
2023-02-11T22:36:24.032Z,84.98
2023-02-11T22:38:51.108Z,85.40
2023-02-11T22:41:19.014Z,85.60
2023-02-11T22:43:46.039Z,85.73
2023-02-11T22:46:15.793Z,85.64
2023-02-11T22:48:43.130Z,85.96
2023-02-11T22:51:16.102Z,86.54
2023-02-11T22:53:45.852Z,86.25
2023-02-11T22:56:15.541Z,86.26
2023-02-11T22:58:43.113Z,86.20
2023-02-11T23:01:10.305Z,86.34
2023-02-11T23:03:37.367Z,86.66
2023-02-11T23:06:04.598Z,86.79
2023-02-11T23:08:32.618Z,87.13
2023-02-11T23:11:08.664Z,87.31
2023-02-11T23:13:37.607Z,87.58
2023-02-11T23:16:06.129Z,87.75
2023-02-11T23:18:34.254Z,87.63
2023-02-11T23:21:13.618Z,88.08
2023-02-11T23:23:40.484Z,88.21
2023-02-11T23:26:18.116Z,88.37
2023-02-11T23:28:46.125Z,88.75
2023-02-11T23:31:26.568Z,88.74
2023-02-11T23:33:54.105Z,88.91
2023-02-11T23:36:21.564Z,89.05
2023-02-11T23:38:48.985Z,89.28
2023-02-11T23:41:16.368Z,89.52
2023-02-11T23:43:43.512Z,89.47
2023-02-11T23:46:11.968Z,89.53
2023-02-11T23:48:40.491Z,90.00
2023-02-11T23:51:09.619Z,90.28
2023-02-11T23:53:39.774Z,90.08
2023-02-11T23:56:12.693Z,90.21
2023-02-11T23:58:39.525Z,90.58
